x

Buoy M01 - Jordan Basin (44037) Wave Buoy

4:04pm - Mon 25th Jul 2016 All times are EDT. -4 hours from GMT.

  • Sig Wave height 1.6ft
  • Peak Period 6s
  • Wind
    11mph, 13mph gusts
  • Sea Temp 65°f
  • Air Temp 66°f
  • Sea Pressure 1011.7mb
  • Buoy M01 - Jordan Basin
  • Buoy M01 - Jordan Basin

More Historic Weather Station data

Upgrade to MSW Pro to gain access to the past 30 days of data for over 8000 Wavebouys and Weather Stations around the globe.

Join Pro

Comparision Forecast

View Surf forecast
   
Mon 07/25 4:04pm 1.6ft 6s 11 13 mph 1011.7mb 65f 66f
3:04pm 1.6ft 6s 9
mph
1012.2mb 66f 68f
2:04pm 2ft 6s 7 9 mph 1012.8mb 65f 68f
1:04pm 2ft 6s 7
mph
1013.4mb 66f 67f
12:04pm 2.5ft 6s 4 7 mph 1013.7mb 64f 66f
11:04am 2ft 6s 4 7 mph 1014mb 67f 68f
10:04am 1.6ft 8s 2
mph
1014.1mb 65f 67f
8:04am 2ft 6s 4
mph
1014.5mb 65f 65f
7:04am 2.5ft 8s 7 9 mph 1014.2mb 65f 65f
6:04am  -   -  7
mph
1013.7mb - 64f
5:04am 2.5ft 8s 7 9 mph 1013.3mb 64f 64f
4:04am 2.5ft 8s 11 13 mph 1013.4mb 64f 64f
3:04am 2.5ft 8s 9 11 mph 1013.4mb 64f 64f
1:04am 3ft 6s 11 13 mph 1013.7mb 64f 65f
12:04am 2.5ft 6s 13 16 mph 1013.8mb 65f 65f
Sun 07/24 11:04pm 3ft 6s 13 16 mph 1013.8mb 65f 66f
9:04pm 3ft 8s 13 16 mph 1013.9mb 65f 66f
7:04pm 2.5ft 8s 11 13 mph 1012.9mb 65f 66f
6:04pm 2.5ft 8s 13 16 mph 1012.6mb 65f 67f
5:04pm 2.5ft 8s 11 13 mph 1012.3mb 66f 67f
4:04pm 2.5ft 8s 9 11 mph 1011.9mb 65f 66f
3:04pm 2.5ft 8s 9 11 mph 1012.1mb 66f 67f
2:04pm 2.5ft 8s 7
mph
1011.8mb 65f 66f
12:04pm 3ft 8s 7 9 mph 1011.8mb 65f 65f
11:04am 3.5ft 8s  -  mph - 64f -
8:04am 3ft 6s 11 13 mph 1011.2mb 64f 65f
7:04am 3.5ft 8s 9 11 mph 1010.3mb 64f 65f
4:04am 3ft 8s 11 16 mph 1008.2mb 64f 64f
3:04am 3ft 8s 9
mph
1007.8mb 63f 64f
2:04am 3ft 6s 16 18 mph 1007.8mb 64f 64f
1:04am 3.5ft 6s 7 9 mph 1007.9mb 64f 64f
12:04am 3.5ft 8s  -  mph - 64f -
Sat 07/23 11:04pm 3.5ft 6s  -  mph - 64f -
7:04pm 3.5ft 6s 7
mph
1006.9mb 64f 66f
6:04pm 3ft 6s 11 13 mph 1006.7mb 64f 66f
5:04pm 2.5ft 8s 9
mph
1006.3mb 63f 67f
4:04pm 3.5ft 6s 9 11 mph 1005.9mb 66f 67f
2:04pm 2.5ft 6s 7
mph
1006.3mb 63f 67f
1:04pm 3.5ft 6s 7
mph
1006.6mb 63f 67f
12:04pm 3.5ft 6s 7
mph
1006.7mb 64f 66f
11:04am 4ft 6s 4 7 mph 1007mb 64f 66f
10:04am 4ft 6s 2 4 mph 1006.8mb 63f 65f
9:04am  -   -  4 7 mph 1006.6mb - 65f
8:04am 4ft 6s 7 11 mph 1006.9mb 63f 64f
7:04am 4.5ft 6s 9
mph
1005.8mb 63f 64f
6:04am 5ft 8s 2 4 mph 1005.3mb 63f 65f
5:04am  -   -  7 9 mph 1005.9mb - 64f
4:04am 6ft 8s 9 11 mph 1005.3mb 63f 65f
3:04am 5ft 6s 9 11 mph 1005.3mb 63f 64f
2:04am 5.5ft 8s 7 13 mph 1004.7mb 63f 68f
1:04am 6ft 6s 11 18 mph 1006mb 63f 67f
12:04am 5.5ft 8s  -  mph - 63f -
Fri 07/22 11:04pm 6ft 8s 16 18 mph 1005.6mb 63f 65f
10:04pm 7ft 6s 18 20 mph 1005.9mb 63f 65f
8:04pm 6.5ft 8s 22 27 mph 1005.3mb 63f 66f
7:04pm  -   -  22 27 mph 1005.4mb - 66f
6:04pm 6.5ft 6s 18 22 mph 1006.1mb 62f 66f
5:04pm 6.5ft 6s 18 22 mph 1006.1mb 62f 66f
4:04pm 5.5ft 6s 20 27 mph 1006.4mb 62f 66f
3:04pm  -   -  20 25 mph 1006.8mb - 66f
2:04pm 5.5ft 6s 18 22 mph 1007.5mb 62f 65f
1:04pm 5ft 6s  -  mph - 62f -
12:04pm 5.5ft 6s 20 22 mph 1008.5mb 62f 65f
11:04am 5ft 6s  -  mph - 62f -
9:04am  -   -  20 22 mph 1010.5mb - 65f
8:04am 4ft 5s 20 22 mph 1011mb 62f 65f
7:04am 4ft 5s 18 20 mph 1011.4mb 62f 65f
6:04am 3.5ft 5s 20 22 mph 1011.6mb 62f 65f
5:04am 3.5ft 5s 18 20 mph 1011.6mb 62f 65f
4:04am 3ft 5s 18 20 mph 1011.7mb 62f 65f
3:04am  -   -  16 18 mph 1012.3mb - 65f
2:04am 3ft 5s 13 18 mph 1012.9mb 62f 65f
12:04am 2.5ft 4s  -  mph - 61f -